createdAt,value
2022-10-31T00:00:00.209Z,101820
2022-10-31T00:01:00.982Z,101820
2022-10-31T00:02:00.253Z,101820
2022-10-31T00:03:00.531Z,101820
2022-10-31T00:04:00.166Z,101810
2022-10-31T00:05:00.159Z,101810
2022-10-31T00:06:00.155Z,101810
2022-10-31T00:07:00.150Z,101810
2022-10-31T00:08:00.164Z,101810
2022-10-31T00:09:00.989Z,101810
2022-10-31T00:10:00.180Z,101810
2022-10-31T00:11:00.256Z,101810
2022-10-31T00:12:00.159Z,101820
2022-10-31T00:13:00.498Z,101820
2022-10-31T00:14:00.460Z,101820
2022-10-31T00:15:00.271Z,101820
2022-10-31T00:16:00.165Z,101820
2022-10-31T00:17:00.155Z,101820
2022-10-31T00:18:00.597Z,101820
2022-10-31T00:19:01.349Z,101820
2022-10-31T00:20:00.178Z,101820
2022-10-31T00:21:00.881Z,101820
2022-10-31T00:22:00.156Z,101820
2022-10-31T00:23:00.723Z,101820
2022-10-31T00:24:00.447Z,101820
2022-10-31T00:25:00.147Z,101820
2022-10-31T00:26:01.454Z,101830
2022-10-31T00:27:00.157Z,101830
2022-10-31T00:28:00.624Z,101820
2022-10-31T00:29:00.200Z,101820
2022-10-31T00:30:00.217Z,101820
2022-10-31T00:31:02.320Z,101820
2022-10-31T00:32:00.164Z,101820
2022-10-31T00:33:00.506Z,101820
2022-10-31T00:34:00.187Z,101820
2022-10-31T00:35:00.164Z,101820
2022-10-31T00:36:00.423Z,101820
2022-10-31T00:37:00.176Z,101820
2022-10-31T00:38:00.229Z,101830
2022-10-31T00:39:00.153Z,101830
2022-10-31T00:40:00.179Z,101820
2022-10-31T00:41:00.153Z,101820
2022-10-31T00:42:00.173Z,101820
2022-10-31T00:43:00.748Z,101820
2022-10-31T00:44:00.161Z,101820
2022-10-31T00:45:00.160Z,101820
2022-10-31T00:46:00.169Z,101820
2022-10-31T00:47:00.150Z,101820
2022-10-31T00:48:00.558Z,101820
2022-10-31T00:49:00.192Z,101820
2022-10-31T00:50:00.236Z,101810
2022-10-31T00:51:00.207Z,101810
2022-10-31T00:52:00.183Z,101810
2022-10-31T00:53:00.150Z,101810
2022-10-31T00:54:00.156Z,101810
2022-10-31T00:55:00.163Z,101810
2022-10-31T00:56:00.192Z,101810
2022-10-31T00:57:00.179Z,101810
2022-10-31T00:58:00.546Z,101810
2022-10-31T00:59:00.149Z,101810
2022-10-31T01:00:00.258Z,101810
2022-10-31T01:01:00.227Z,101810
2022-10-31T01:02:00.301Z,101810
2022-10-31T01:03:00.399Z,101810
2022-10-31T01:04:00.175Z,101810
2022-10-31T01:05:00.184Z,101810
2022-10-31T01:06:03.743Z,101810
2022-10-31T01:07:00.155Z,101810
2022-10-31T01:08:00.182Z,101820
2022-10-31T01:09:00.155Z,101820
2022-10-31T01:10:00.159Z,101820
2022-10-31T01:11:01.384Z,101820
2022-10-31T01:12:00.156Z,101820
2022-10-31T01:13:00.536Z,101820
2022-10-31T01:14:00.163Z,101820
2022-10-31T01:15:00.169Z,101820
2022-10-31T01:16:00.532Z,101810
2022-10-31T01:17:00.192Z,101810
2022-10-31T01:18:00.414Z,101820
2022-10-31T01:19:00.333Z,101820
2022-10-31T01:20:00.492Z,101820
2022-10-31T01:21:01.324Z,101820
2022-10-31T01:22:00.176Z,101820
2022-10-31T01:23:00.160Z,101820
2022-10-31T01:24:00.204Z,101810
2022-10-31T01:25:00.414Z,101810
2022-10-31T01:26:05.570Z,101800
2022-10-31T01:27:00.153Z,101800
2022-10-31T01:28:00.635Z,101790
2022-10-31T01:29:01.779Z,101790
2022-10-31T01:30:00.178Z,101800
2022-10-31T01:31:00.851Z,101800
2022-10-31T01:32:00.160Z,101800
2022-10-31T01:33:00.458Z,101800
2022-10-31T01:34:00.498Z,101790
2022-10-31T01:35:00.229Z,101790
2022-10-31T01:36:00.494Z,101780
2022-10-31T01:37:00.156Z,101780
2022-10-31T01:38:00.157Z,101780
2022-10-31T01:39:02.180Z,101780
2022-10-31T01:40:00.157Z,101780
2022-10-31T01:41:00.162Z,101780
2022-10-31T01:42:00.413Z,101790
2022-10-31T01:43:00.533Z,101790
2022-10-31T01:44:01.607Z,101790
2022-10-31T01:45:01.498Z,101790
2022-10-31T01:46:00.193Z,101790
2022-10-31T01:47:05.442Z,101790
2022-10-31T01:48:00.583Z,101790
2022-10-31T01:49:02.466Z,101790
2022-10-31T01:50:02.606Z,101790
2022-10-31T01:51:00.500Z,101790
2022-10-31T01:52:03.925Z,101800
2022-10-31T01:53:00.736Z,101800
2022-10-31T01:54:02.344Z,101800
2022-10-31T01:55:02.925Z,101800
2022-10-31T01:56:00.249Z,101810
2022-10-31T01:57:01.690Z,101810
2022-10-31T01:58:10.067Z,101810
2022-10-31T01:59:01.720Z,101810
2022-10-31T02:00:01.714Z,101810
2022-10-31T02:01:04.868Z,101810
2022-10-31T02:02:00.396Z,101810
2022-10-31T02:03:00.825Z,101810
2022-10-31T02:04:00.296Z,101810
2022-10-31T02:05:01.825Z,101810
2022-10-31T02:06:00.240Z,101800
2022-10-31T02:07:03.453Z,101800
2022-10-31T02:08:03.746Z,101800
2022-10-31T02:09:01.225Z,101800
2022-10-31T02:10:00.789Z,101800
2022-10-31T02:11:01.074Z,101800
2022-10-31T02:12:00.497Z,101800
2022-10-31T02:13:02.247Z,101800
2022-10-31T02:14:01.242Z,101800
2022-10-31T02:15:00.241Z,101800
2022-10-31T02:16:00.193Z,101800
2022-10-31T02:17:00.181Z,101800
2022-10-31T02:18:00.618Z,101800
2022-10-31T02:19:00.204Z,101800
2022-10-31T02:20:10.117Z,101800
2022-10-31T02:21:01.181Z,101800
2022-10-31T02:22:07.614Z,101800
2022-10-31T02:23:00.186Z,101800
2022-10-31T02:24:06.912Z,101790
2022-10-31T02:25:10.122Z,101790
2022-10-31T02:26:00.157Z,101790
2022-10-31T02:27:00.197Z,101790
2022-10-31T02:28:05.799Z,101790
2022-10-31T02:29:01.187Z,101790
2022-10-31T02:30:04.287Z,101790
2022-10-31T02:31:10.109Z,101790
2022-10-31T02:32:00.161Z,101790
2022-10-31T02:33:05.268Z,101790
2022-10-31T02:34:04.758Z,101790
2022-10-31T02:35:00.147Z,101790
2022-10-31T02:36:10.097Z,101790
2022-10-31T02:37:10.094Z,101790
2022-10-31T02:38:04.198Z,101790
2022-10-31T02:39:10.095Z,101790
2022-10-31T02:40:10.110Z,101790
2022-10-31T02:41:04.449Z,101790
2022-10-31T02:42:10.094Z,101790
2022-10-31T02:43:10.199Z,101790
2022-10-31T02:44:03.419Z,101780
2022-10-31T02:45:00.158Z,101780
2022-10-31T02:46:10.097Z,101780
2022-10-31T02:47:10.100Z,101780
2022-10-31T02:48:03.360Z,101780
2022-10-31T02:49:03.938Z,101780
2022-10-31T02:50:04.527Z,101780
2022-10-31T02:51:00.910Z,101780
2022-10-31T02:52:00.202Z,101790
2022-10-31T02:53:00.967Z,101790
2022-10-31T02:54:00.171Z,101790
2022-10-31T02:55:10.099Z,101790
2022-10-31T02:56:04.143Z,101790
2022-10-31T02:57:02.870Z,101790
2022-10-31T02:58:03.594Z,101790
2022-10-31T02:59:02.212Z,101790
2022-10-31T03:00:02.434Z,101790
2022-10-31T03:01:10.315Z,101790
2022-10-31T03:02:03.500Z,101790
2022-10-31T03:03:10.144Z,101790
2022-10-31T03:04:10.090Z,101790
2022-10-31T03:05:09.669Z,101790
2022-10-31T03:06:07.134Z,101790
2022-10-31T03:07:05.322Z,101790
2022-10-31T03:08:01.166Z,101790
2022-10-31T03:09:07.457Z,101790
2022-10-31T03:10:00.139Z,101790
2022-10-31T03:11:01.770Z,101790
2022-10-31T03:12:03.398Z,101790
2022-10-31T03:13:06.586Z,101790
2022-10-31T03:14:08.980Z,101790
2022-10-31T03:15:10.103Z,101790
2022-10-31T03:16:07.278Z,101790
2022-10-31T03:17:02.091Z,101790
2022-10-31T03:18:04.537Z,101790
2022-10-31T03:19:03.091Z,101790
2022-10-31T03:20:00.892Z,101790
2022-10-31T03:21:10.090Z,101790
2022-10-31T03:22:01.158Z,101800
2022-10-31T03:23:01.152Z,101800
2022-10-31T03:24:01.109Z,101800
2022-10-31T03:25:01.409Z,101800
2022-10-31T03:26:02.065Z,101800
2022-10-31T03:27:00.963Z,101800
2022-10-31T03:28:01.721Z,101800
2022-10-31T03:29:02.087Z,101800
2022-10-31T03:30:02.041Z,101790
2022-10-31T03:31:03.535Z,101790
2022-10-31T03:32:02.510Z,101800
2022-10-31T03:33:03.277Z,101800
2022-10-31T03:34:01.429Z,101800
2022-10-31T03:35:03.407Z,101800
2022-10-31T03:36:02.657Z,101790
2022-10-31T03:37:01.827Z,101790
2022-10-31T03:38:04.176Z,101790
2022-10-31T03:39:02.121Z,101790
2022-10-31T03:40:01.276Z,101790
2022-10-31T03:41:01.635Z,101790
2022-10-31T03:42:04.622Z,101790
2022-10-31T03:43:02.326Z,101790
2022-10-31T03:44:04.075Z,101790
2022-10-31T03:45:04.507Z,101790
2022-10-31T03:46:00.162Z,101790
2022-10-31T03:47:01.115Z,101790
2022-10-31T03:48:00.605Z,101790
2022-10-31T03:49:01.081Z,101790
2022-10-31T03:50:00.253Z,101790
2022-10-31T03:51:10.099Z,101790
2022-10-31T03:52:10.091Z,101790
2022-10-31T03:53:04.960Z,101790
2022-10-31T03:54:00.134Z,101790
2022-10-31T03:55:06.134Z,101790
2022-10-31T03:56:04.032Z,101790
2022-10-31T03:57:03.051Z,101790
2022-10-31T03:58:04.023Z,101790
2022-10-31T03:59:04.148Z,101790
2022-10-31T04:00:03.577Z,101790
2022-10-31T04:01:02.766Z,101790
2022-10-31T04:02:03.810Z,101790
2022-10-31T04:03:04.166Z,101790
2022-10-31T04:04:01.027Z,101790
2022-10-31T04:05:00.759Z,101790
2022-10-31T04:06:02.993Z,101790
2022-10-31T04:07:01.424Z,101790
2022-10-31T04:08:02.494Z,101790
2022-10-31T04:09:02.152Z,101790
2022-10-31T04:10:01.881Z,101790
2022-10-31T04:11:02.026Z,101790
2022-10-31T04:12:00.819Z,101790
2022-10-31T04:13:03.405Z,101790
2022-10-31T04:14:01.104Z,101790
2022-10-31T04:15:01.233Z,101790
2022-10-31T04:16:00.245Z,101790
2022-10-31T04:17:01.222Z,101790
2022-10-31T04:18:01.483Z,101790
2022-10-31T04:19:00.156Z,101790
2022-10-31T04:20:00.290Z,101800
2022-10-31T04:21:01.422Z,101800
2022-10-31T04:22:00.444Z,101800
2022-10-31T04:23:01.052Z,101800
2022-10-31T04:24:00.156Z,101800
2022-10-31T04:25:00.165Z,101800
2022-10-31T04:26:00.289Z,101800
2022-10-31T04:27:00.155Z,101800
2022-10-31T04:28:00.673Z,101800
2022-10-31T04:29:00.164Z,101800
2022-10-31T04:30:00.161Z,101800
2022-10-31T04:31:00.148Z,101800
2022-10-31T04:32:00.163Z,101800
2022-10-31T04:33:00.503Z,101800
2022-10-31T04:34:00.152Z,101790
2022-10-31T04:35:00.189Z,101790
2022-10-31T04:36:00.156Z,101790
2022-10-31T04:37:00.146Z,101790
2022-10-31T04:38:00.172Z,101790
2022-10-31T04:39:00.174Z,101790
2022-10-31T04:40:00.161Z,101790
2022-10-31T04:41:00.165Z,101790
2022-10-31T04:42:00.150Z,101790
2022-10-31T04:43:00.530Z,101790
2022-10-31T04:44:00.180Z,101780
2022-10-31T04:45:00.153Z,101780
2022-10-31T04:46:00.192Z,101790
2022-10-31T04:47:00.194Z,101790
2022-10-31T04:48:00.563Z,101790
2022-10-31T04:49:00.148Z,101790
2022-10-31T04:50:00.920Z,101790
2022-10-31T04:51:01.036Z,101790
2022-10-31T04:52:00.150Z,101790
2022-10-31T04:53:00.156Z,101790
2022-10-31T04:54:00.240Z,101790
2022-10-31T04:55:00.160Z,101790
2022-10-31T04:56:00.240Z,101790
2022-10-31T04:57:00.152Z,101790
2022-10-31T04:58:00.671Z,101790
2022-10-31T04:59:00.173Z,101790
2022-10-31T05:00:00.162Z,101790
2022-10-31T05:01:00.281Z,101790
2022-10-31T05:02:00.296Z,101790
2022-10-31T05:03:00.662Z,101790
2022-10-31T05:04:00.165Z,101790
2022-10-31T05:05:00.157Z,101790
2022-10-31T05:06:00.164Z,101790
2022-10-31T05:07:00.153Z,101790
2022-10-31T05:08:00.427Z,101780
2022-10-31T05:09:00.156Z,101780
2022-10-31T05:10:00.173Z,101780
2022-10-31T05:11:04.176Z,101780
2022-10-31T05:12:00.155Z,101780
2022-10-31T05:13:01.881Z,101780
2022-10-31T05:14:00.169Z,101780
2022-10-31T05:15:00.159Z,101780
2022-10-31T05:16:00.148Z,101780
2022-10-31T05:17:00.152Z,101780
2022-10-31T05:18:00.984Z,101770
2022-10-31T05:19:00.161Z,101770
2022-10-31T05:20:00.160Z,101770
2022-10-31T05:21:00.160Z,101770
2022-10-31T05:22:00.160Z,101770
2022-10-31T05:23:00.230Z,101770
2022-10-31T05:24:00.240Z,101770
2022-10-31T05:25:00.159Z,101770
2022-10-31T05:26:00.165Z,101770
2022-10-31T05:27:00.149Z,101770
2022-10-31T05:28:00.424Z,101770
2022-10-31T05:29:00.226Z,101770
2022-10-31T05:31:00.168Z,101770
2022-10-31T05:32:00.179Z,101770
2022-10-31T05:33:00.505Z,101770
2022-10-31T05:34:00.159Z,101770
2022-10-31T05:35:00.150Z,101770
2022-10-31T05:36:00.164Z,101770
2022-10-31T05:37:00.153Z,101770
2022-10-31T05:38:00.165Z,101780
2022-10-31T05:39:00.151Z,101780
2022-10-31T05:40:05.284Z,101770
2022-10-31T05:41:00.216Z,101770
2022-10-31T05:42:00.156Z,101770
2022-10-31T05:43:00.447Z,101770
2022-10-31T05:44:00.169Z,101770
2022-10-31T05:45:00.163Z,101770
2022-10-31T05:46:00.176Z,101770
2022-10-31T05:47:00.153Z,101770
2022-10-31T05:48:01.207Z,101760
2022-10-31T05:49:01.729Z,101760
2022-10-31T05:50:00.227Z,101770
2022-10-31T05:51:00.154Z,101770
2022-10-31T05:52:00.154Z,101760
2022-10-31T05:53:01.195Z,101760
2022-10-31T05:54:00.152Z,101760
2022-10-31T05:55:00.165Z,101760
2022-10-31T05:56:00.154Z,101760
2022-10-31T05:57:00.154Z,101760
2022-10-31T05:58:00.613Z,101760
2022-10-31T05:59:00.157Z,101760
2022-10-31T06:00:00.261Z,101760
2022-10-31T06:01:00.196Z,101760
2022-10-31T06:02:00.184Z,101760
2022-10-31T06:03:02.328Z,101760
2022-10-31T06:04:00.147Z,101760
2022-10-31T06:05:00.845Z,101760
2022-10-31T06:06:00.165Z,101760
2022-10-31T06:07:00.203Z,101760
2022-10-31T06:08:00.614Z,101760
2022-10-31T06:09:00.149Z,101760
2022-10-31T06:10:00.259Z,101760
2022-10-31T06:11:00.157Z,101760
2022-10-31T06:12:00.154Z,101760
2022-10-31T06:13:00.153Z,101760
2022-10-31T06:14:00.221Z,101750
2022-10-31T06:15:00.174Z,101750
2022-10-31T06:16:00.188Z,101750
2022-10-31T06:17:00.157Z,101750
2022-10-31T06:18:01.387Z,101750
2022-10-31T06:19:00.164Z,101750
2022-10-31T06:20:00.546Z,101750
2022-10-31T06:21:00.164Z,101750
2022-10-31T06:22:00.155Z,101760
2022-10-31T06:23:00.542Z,101760
2022-10-31T06:24:00.147Z,101750
2022-10-31T06:25:00.345Z,101750
2022-10-31T06:26:00.153Z,101750
2022-10-31T06:27:00.151Z,101750
2022-10-31T06:28:00.181Z,101750
2022-10-31T06:29:03.143Z,101750
2022-10-31T06:30:00.162Z,101750
2022-10-31T06:31:00.165Z,101750
2022-10-31T06:32:00.158Z,101750
2022-10-31T06:33:02.273Z,101750
2022-10-31T06:34:00.147Z,101750
2022-10-31T06:35:00.179Z,101750
2022-10-31T06:36:00.599Z,101760
2022-10-31T06:37:00.193Z,101760
2022-10-31T06:38:00.743Z,101750
2022-10-31T06:39:00.319Z,101750
2022-10-31T06:40:00.182Z,101750
2022-10-31T06:41:04.310Z,101750
2022-10-31T06:42:00.180Z,101750
2022-10-31T06:43:00.584Z,101750
2022-10-31T06:44:04.889Z,101750
2022-10-31T06:45:00.173Z,101750
2022-10-31T06:46:04.101Z,101750
2022-10-31T06:47:00.191Z,101750
2022-10-31T06:48:17.727Z,101760
2022-10-31T06:49:00.201Z,101760
2022-10-31T06:50:00.166Z,101760
2022-10-31T06:51:00.474Z,101760
2022-10-31T06:52:00.161Z,101760
2022-10-31T06:53:00.302Z,101760
2022-10-31T06:54:00.147Z,101760
2022-10-31T06:55:00.157Z,101760
2022-10-31T06:56:00.162Z,101760
2022-10-31T06:57:00.147Z,101760
2022-10-31T06:58:03.067Z,101760
2022-10-31T06:59:00.156Z,101760
2022-10-31T07:00:00.187Z,101760
2022-10-31T07:01:00.722Z,101760
2022-10-31T07:02:00.330Z,101760
2022-10-31T07:03:01.551Z,101760
2022-10-31T07:04:00.149Z,101760
2022-10-31T07:05:00.154Z,101760
2022-10-31T07:06:00.155Z,101760
2022-10-31T07:07:00.147Z,101760
2022-10-31T07:08:01.453Z,101760
2022-10-31T07:09:00.167Z,101760
2022-10-31T07:10:00.328Z,101760
2022-10-31T07:11:00.215Z,101760
2022-10-31T07:12:00.153Z,101760
2022-10-31T07:13:01.706Z,101760
2022-10-31T07:14:00.183Z,101760
2022-10-31T07:15:00.174Z,101760
2022-10-31T07:16:01.221Z,101760
2022-10-31T07:17:00.152Z,101760
2022-10-31T07:18:00.633Z,101760
2022-10-31T07:19:00.202Z,101760
2022-10-31T07:20:00.150Z,101760
2022-10-31T07:21:00.152Z,101760
2022-10-31T07:22:00.163Z,101760
2022-10-31T07:23:00.662Z,101760
2022-10-31T07:24:00.162Z,101760
2022-10-31T07:25:00.152Z,101760
2022-10-31T07:26:00.155Z,101760
2022-10-31T07:28:00.468Z,101760
2022-10-31T07:29:00.151Z,101760
2022-10-31T07:30:00.187Z,101760
2022-10-31T07:31:00.235Z,101760
2022-10-31T07:32:00.159Z,101760
2022-10-31T07:33:00.192Z,101760
2022-10-31T07:34:00.184Z,101760
2022-10-31T07:35:00.153Z,101760
2022-10-31T07:36:00.160Z,101770
2022-10-31T07:37:00.153Z,101770
2022-10-31T07:38:10.102Z,101770
2022-10-31T07:39:00.196Z,101770
2022-10-31T07:40:00.283Z,101770
2022-10-31T07:41:00.153Z,101770
2022-10-31T07:42:00.164Z,101770
2022-10-31T07:43:00.162Z,101770
2022-10-31T07:44:00.175Z,101770
2022-10-31T07:45:00.160Z,101770
2022-10-31T07:46:00.152Z,101770
2022-10-31T07:47:00.152Z,101770
2022-10-31T07:48:00.443Z,101780
2022-10-31T07:49:00.253Z,101780
2022-10-31T07:50:00.163Z,101780
2022-10-31T07:51:00.150Z,101780
2022-10-31T07:52:00.151Z,101780
2022-10-31T07:53:08.669Z,101780
2022-10-31T07:54:00.227Z,101780
2022-10-31T07:55:00.396Z,101780
2022-10-31T07:56:00.306Z,101780
2022-10-31T07:57:00.158Z,101780
2022-10-31T07:58:01.938Z,101780
2022-10-31T07:59:00.165Z,101780
2022-10-31T08:00:00.271Z,101780
2022-10-31T08:01:00.338Z,101780
2022-10-31T08:02:00.150Z,101780
2022-10-31T08:03:01.079Z,101780
2022-10-31T08:04:00.155Z,101780
2022-10-31T08:05:01.391Z,101780
2022-10-31T08:06:00.150Z,101780
2022-10-31T08:07:00.156Z,101780
2022-10-31T08:08:00.503Z,101770
2022-10-31T08:09:00.157Z,101770
2022-10-31T08:10:00.163Z,101770
2022-10-31T08:11:00.158Z,101770
2022-10-31T08:12:00.218Z,101780
2022-10-31T08:13:03.395Z,101780
2022-10-31T08:14:00.150Z,101780
2022-10-31T08:15:00.154Z,101780
2022-10-31T08:16:00.160Z,101780
2022-10-31T08:17:00.370Z,101780
2022-10-31T08:18:00.560Z,101780
2022-10-31T08:19:00.150Z,101780
2022-10-31T08:20:00.173Z,101770
2022-10-31T08:21:00.149Z,101770
2022-10-31T08:22:00.167Z,101770
2022-10-31T08:23:01.201Z,101770
2022-10-31T08:24:00.159Z,101780
2022-10-31T08:25:00.160Z,101780
2022-10-31T08:26:00.173Z,101780
2022-10-31T08:27:00.150Z,101780
2022-10-31T08:28:00.377Z,101780
2022-10-31T08:29:00.219Z,101780
2022-10-31T08:30:00.169Z,101780
2022-10-31T08:31:00.178Z,101780
2022-10-31T08:32:00.153Z,101780
2022-10-31T08:33:02.760Z,101780
2022-10-31T08:34:00.163Z,101780
2022-10-31T08:35:00.163Z,101780
2022-10-31T08:36:00.223Z,101780
2022-10-31T08:37:00.156Z,101780
2022-10-31T08:38:00.650Z,101770
2022-10-31T08:39:02.144Z,101770
2022-10-31T08:40:00.270Z,101770
2022-10-31T08:41:00.155Z,101770
2022-10-31T08:42:00.155Z,101760
2022-10-31T08:43:02.634Z,101760
2022-10-31T08:44:00.169Z,101760
2022-10-31T08:45:00.228Z,101760
2022-10-31T08:46:00.248Z,101750
2022-10-31T08:47:00.161Z,101750
2022-10-31T08:48:01.927Z,101760
2022-10-31T08:49:00.156Z,101760
2022-10-31T08:50:00.164Z,101760
2022-10-31T08:51:00.158Z,101760
2022-10-31T08:52:00.213Z,101770
2022-10-31T08:53:05.382Z,101770
2022-10-31T08:54:00.257Z,101770
2022-10-31T08:55:00.152Z,101770
2022-10-31T08:56:00.160Z,101770
2022-10-31T08:57:00.147Z,101770
2022-10-31T08:58:00.648Z,101760
2022-10-31T08:59:00.390Z,101760
2022-10-31T09:00:00.179Z,101760
2022-10-31T09:01:00.787Z,101760
2022-10-31T09:02:00.282Z,101740
2022-10-31T09:03:01.667Z,101740
2022-10-31T09:04:00.152Z,101720
2022-10-31T09:05:00.178Z,101720
2022-10-31T09:06:02.749Z,101700
2022-10-31T09:07:20.692Z,101700
2022-10-31T09:08:01.192Z,101690
2022-10-31T09:09:00.155Z,101690
2022-10-31T09:10:00.219Z,101710
2022-10-31T09:11:00.513Z,101710
2022-10-31T09:12:00.152Z,101710
2022-10-31T09:13:01.609Z,101710
2022-10-31T09:14:00.168Z,101710
2022-10-31T09:15:00.227Z,101710
2022-10-31T09:16:00.183Z,101720
2022-10-31T09:17:00.168Z,101720
2022-10-31T09:18:00.645Z,101710
2022-10-31T09:19:00.152Z,101710
2022-10-31T09:20:00.165Z,101720
2022-10-31T09:21:00.447Z,101720
2022-10-31T09:22:00.153Z,101710
2022-10-31T09:23:01.340Z,101710
2022-10-31T09:24:00.150Z,101720
2022-10-31T09:25:00.150Z,101720
2022-10-31T09:26:00.929Z,101720
2022-10-31T09:27:00.163Z,101720
2022-10-31T09:28:01.409Z,101710
2022-10-31T09:29:00.160Z,101710
2022-10-31T09:30:00.263Z,101720
2022-10-31T09:31:00.158Z,101720
2022-10-31T09:32:00.149Z,101730
2022-10-31T09:33:01.602Z,101730
2022-10-31T09:34:00.227Z,101750
2022-10-31T09:35:00.262Z,101750
2022-10-31T09:36:00.153Z,101740
2022-10-31T09:37:00.151Z,101740
2022-10-31T09:38:01.594Z,101730
2022-10-31T09:39:00.157Z,101730
2022-10-31T09:40:00.174Z,101720
2022-10-31T09:41:10.092Z,101720
2022-10-31T09:42:10.095Z,101710
2022-10-31T09:43:01.164Z,101710
2022-10-31T09:44:10.090Z,101710
2022-10-31T09:45:10.109Z,101710
2022-10-31T09:46:05.128Z,101710
2022-10-31T09:47:10.090Z,101710
2022-10-31T09:48:07.529Z,101710
2022-10-31T09:49:10.138Z,101710
2022-10-31T09:50:01.228Z,101700
2022-10-31T09:51:03.140Z,101700
2022-10-31T09:53:02.454Z,101690
2022-10-31T09:54:06.807Z,101680
2022-10-31T09:55:03.415Z,101680
2022-10-31T09:56:01.355Z,101680
2022-10-31T09:57:00.658Z,101680
2022-10-31T09:58:00.847Z,101680
2022-10-31T09:59:01.366Z,101680
2022-10-31T10:00:00.829Z,101670
2022-10-31T10:01:02.762Z,101670
2022-10-31T10:02:04.558Z,101680
2022-10-31T10:03:10.093Z,101680
2022-10-31T10:04:10.091Z,101680
2022-10-31T10:05:02.726Z,101680
2022-10-31T10:06:03.402Z,101670
2022-10-31T10:07:02.666Z,101670
2022-10-31T10:08:05.485Z,101680
2022-10-31T10:09:00.336Z,101680
2022-10-31T10:10:01.580Z,101670
2022-10-31T10:11:01.153Z,101670
2022-10-31T10:12:09.971Z,101670
2022-10-31T10:13:09.377Z,101670
2022-10-31T10:14:01.169Z,101670
2022-10-31T10:15:10.100Z,101670
2022-10-31T10:16:09.156Z,101670
2022-10-31T10:17:10.087Z,101670
2022-10-31T10:18:05.460Z,101670
2022-10-31T10:19:06.268Z,101670
2022-10-31T10:20:03.390Z,101670
2022-10-31T10:21:09.678Z,101670
2022-10-31T10:22:07.899Z,101670
2022-10-31T10:23:10.092Z,101670
2022-10-31T10:24:01.150Z,101660
2022-10-31T10:25:00.140Z,101660
2022-10-31T10:26:10.191Z,101660
2022-10-31T10:27:10.097Z,101660
2022-10-31T10:28:10.089Z,101640
2022-10-31T10:29:07.450Z,101640
2022-10-31T10:30:10.093Z,101640
2022-10-31T10:31:03.275Z,101640
2022-10-31T10:32:03.200Z,101630
2022-10-31T10:33:03.371Z,101630
2022-10-31T10:34:00.143Z,101630
2022-10-31T10:35:09.245Z,101630
2022-10-31T10:36:01.248Z,101630
2022-10-31T10:37:03.441Z,101630
2022-10-31T10:38:03.792Z,101630
2022-10-31T10:39:02.688Z,101630
2022-10-31T10:40:06.281Z,101620
2022-10-31T10:41:02.183Z,101620
2022-10-31T10:42:00.244Z,101620
2022-10-31T10:43:10.101Z,101620
2022-10-31T10:44:00.206Z,101620
2022-10-31T10:45:06.818Z,101620
2022-10-31T10:46:01.160Z,101620
2022-10-31T10:47:01.599Z,101620
2022-10-31T10:48:06.132Z,101610
2022-10-31T10:49:06.717Z,101610
2022-10-31T10:50:02.699Z,101610
2022-10-31T10:51:01.401Z,101610
2022-10-31T10:52:35.889Z,101610
2022-10-31T10:53:10.091Z,101610
2022-10-31T10:54:09.426Z,101600
2022-10-31T10:55:00.136Z,101600
2022-10-31T10:56:04.333Z,101600
2022-10-31T10:57:10.092Z,101600
2022-10-31T10:58:00.640Z,101600
2022-10-31T10:59:00.159Z,101600
2022-10-31T11:00:01.238Z,101600
2022-10-31T11:01:00.258Z,101600
2022-10-31T11:02:00.149Z,101600
2022-10-31T11:03:00.599Z,101600
2022-10-31T11:04:02.174Z,101600
2022-10-31T11:05:01.241Z,101600
2022-10-31T11:06:00.161Z,101600
2022-10-31T11:07:00.138Z,101600
2022-10-31T11:08:00.386Z,101610
2022-10-31T11:09:08.183Z,101610
2022-10-31T11:10:10.093Z,101600
2022-10-31T11:11:01.530Z,101600
2022-10-31T11:12:05.746Z,101590
2022-10-31T11:13:01.556Z,101590
2022-10-31T11:14:02.842Z,101590
2022-10-31T11:15:05.951Z,101590
2022-10-31T11:16:02.757Z,101580
2022-10-31T11:17:09.745Z,101580
2022-10-31T11:18:00.358Z,101580
2022-10-31T11:19:10.097Z,101580
2022-10-31T11:20:01.124Z,101570
2022-10-31T11:21:02.137Z,101570
2022-10-31T11:22:08.213Z,101580
2022-10-31T11:23:01.539Z,101580
2022-10-31T11:24:10.093Z,101590
2022-10-31T11:25:00.180Z,101590
2022-10-31T11:26:02.825Z,101590
2022-10-31T11:27:10.098Z,101590
2022-10-31T11:28:00.140Z,101580
2022-10-31T11:29:00.160Z,101580
2022-10-31T11:30:04.257Z,101580
2022-10-31T11:31:05.843Z,101580
2022-10-31T11:32:00.563Z,101570
2022-10-31T11:33:00.576Z,101570
2022-10-31T11:34:01.612Z,101570
2022-10-31T11:35:01.548Z,101570
2022-10-31T11:36:01.621Z,101560
2022-10-31T11:37:03.939Z,101560
2022-10-31T11:38:00.847Z,101560
2022-10-31T11:39:02.144Z,101560
2022-10-31T11:40:01.994Z,101550
2022-10-31T11:41:08.675Z,101550
2022-10-31T11:42:06.239Z,101540
2022-10-31T11:43:00.170Z,101540
2022-10-31T11:44:10.093Z,101530
2022-10-31T11:45:10.095Z,101530
2022-10-31T11:46:07.968Z,101520
2022-10-31T11:47:02.307Z,101520
2022-10-31T11:48:01.276Z,101510
2022-10-31T11:49:00.562Z,101510
2022-10-31T11:50:02.016Z,101510
2022-10-31T11:51:00.169Z,101510
2022-10-31T11:52:02.857Z,101510
2022-10-31T11:53:00.701Z,101510
2022-10-31T11:54:03.039Z,101510
2022-10-31T11:55:10.099Z,101510
2022-10-31T11:56:03.495Z,101500
2022-10-31T11:57:00.251Z,101500
2022-10-31T11:58:00.993Z,101500
2022-10-31T11:59:02.288Z,101500
2022-10-31T12:00:00.927Z,101500
2022-10-31T12:01:00.158Z,101500
2022-10-31T12:02:01.037Z,101500
2022-10-31T12:03:10.095Z,101500
2022-10-31T12:04:06.201Z,101490
2022-10-31T12:05:01.148Z,101490
2022-10-31T12:06:07.250Z,101490
2022-10-31T12:07:00.346Z,101490
2022-10-31T12:08:03.526Z,101490
2022-10-31T12:09:00.206Z,101490
2022-10-31T12:10:00.159Z,101480
2022-10-31T12:11:08.576Z,101480
2022-10-31T12:12:03.390Z,101460
2022-10-31T12:13:08.652Z,101460
2022-10-31T12:14:03.830Z,101460
2022-10-31T12:15:05.509Z,101460
2022-10-31T12:16:06.546Z,101460
2022-10-31T12:17:06.419Z,101460
2022-10-31T12:18:03.399Z,101450
2022-10-31T12:19:00.131Z,101450
2022-10-31T12:20:07.473Z,101440
2022-10-31T12:21:10.093Z,101440
2022-10-31T12:22:05.134Z,101440
2022-10-31T12:23:06.397Z,101440
2022-10-31T12:24:08.842Z,101430
2022-10-31T12:25:10.097Z,101430
2022-10-31T12:26:10.091Z,101420
2022-10-31T12:27:00.147Z,101420
2022-10-31T12:28:06.582Z,101420
2022-10-31T12:29:10.090Z,101420
2022-10-31T12:30:10.103Z,101410
2022-10-31T12:31:07.491Z,101410